sensor_id;sensor_type;location;lat;lon;timestamp;temperature;humidity
27200;DHT22;14714;48.106;11.546;2023-06-14T00:00:14;10.50;99.90
27200;DHT22;14714;48.106;11.546;2023-06-14T00:02:42;10.40;99.90
27200;DHT22;14714;48.106;11.546;2023-06-14T00:05:09;10.30;99.90
27200;DHT22;14714;48.106;11.546;2023-06-14T00:07:40;10.30;99.90
27200;DHT22;14714;48.106;11.546;2023-06-14T00:10:14;10.30;99.90
27200;DHT22;14714;48.106;11.546;2023-06-14T00:12:42;10.20;99.90
27200;DHT22;14714;48.106;11.546;2023-06-14T00:15:08;10.10;99.90
27200;DHT22;14714;48.106;11.546;2023-06-14T00:17:38;10.10;99.90
27200;DHT22;14714;48.106;11.546;2023-06-14T00:20:06;10.10;99.90
27200;DHT22;14714;48.106;11.546;2023-06-14T00:22:33;10.10;99.90
27200;DHT22;14714;48.106;11.546;2023-06-14T00:25:00;10.00;99.90
27200;DHT22;14714;48.106;11.546;2023-06-14T00:27:40;10.00;99.90
27200;DHT22;14714;48.106;11.546;2023-06-14T00:30:08;9.90;99.90
27200;DHT22;14714;48.106;11.546;2023-06-14T00:32:35;9.90;99.90
27200;DHT22;14714;48.106;11.546;2023-06-14T00:35:02;9.90;99.90
27200;DHT22;14714;48.106;11.546;2023-06-14T00:37:28;9.90;99.90
27200;DHT22;14714;48.106;11.546;2023-06-14T00:39:55;9.80;99.90
27200;DHT22;14714;48.106;11.546;2023-06-14T00:42:26;9.80;99.90
27200;DHT22;14714;48.106;11.546;2023-06-14T00:44:54;9.80;99.90
27200;DHT22;14714;48.106;11.546;2023-06-14T00:47:22;9.70;99.90
27200;DHT22;14714;48.106;11.546;2023-06-14T00:49:53;9.70;99.90
27200;DHT22;14714;48.106;11.546;2023-06-14T00:52:21;9.70;99.90
27200;DHT22;14714;48.106;11.546;2023-06-14T00:54:48;9.70;99.90
27200;DHT22;14714;48.106;11.546;2023-06-14T00:57:15;9.60;99.90
27200;DHT22;14714;48.106;11.546;2023-06-14T00:59:44;9.60;99.90
27200;DHT22;14714;48.106;11.546;2023-06-14T01:02:12;9.50;99.90
27200;DHT22;14714;48.106;11.546;2023-06-14T01:04:43;9.50;99.90
27200;DHT22;14714;48.106;11.546;2023-06-14T01:07:15;9.50;99.90
27200;DHT22;14714;48.106;11.546;2023-06-14T01:09:51;9.50;99.90
27200;DHT22;14714;48.106;11.546;2023-06-14T01:12:50;9.40;99.90
27200;DHT22;14714;48.106;11.546;2023-06-14T01:15:21;9.40;99.90
27200;DHT22;14714;48.106;11.546;2023-06-14T01:17:50;9.30;99.90
27200;DHT22;14714;48.106;11.546;2023-06-14T01:20:20;9.30;99.90
27200;DHT22;14714;48.106;11.546;2023-06-14T01:22:54;9.30;99.90
27200;DHT22;14714;48.106;11.546;2023-06-14T01:25:22;9.20;99.90
27200;DHT22;14714;48.106;11.546;2023-06-14T01:27:52;9.20;99.90
27200;DHT22;14714;48.106;11.546;2023-06-14T01:30:20;9.20;99.90
27200;DHT22;14714;48.106;11.546;2023-06-14T01:32:48;9.10;99.90
27200;DHT22;14714;48.106;11.546;2023-06-14T01:35:17;9.10;99.90
27200;DHT22;14714;48.106;11.546;2023-06-14T01:37:47;9.10;99.90
27200;DHT22;14714;48.106;11.546;2023-06-14T01:40:15;9.10;99.90
27200;DHT22;14714;48.106;11.546;2023-06-14T01:42:44;9.00;99.90
27200;DHT22;14714;48.106;11.546;2023-06-14T01:45:12;9.00;99.90
27200;DHT22;14714;48.106;11.546;2023-06-14T01:47:40;9.00;99.90
27200;DHT22;14714;48.106;11.546;2023-06-14T01:50:08;8.90;99.90
27200;DHT22;14714;48.106;11.546;2023-06-14T01:52:34;8.90;99.90
27200;DHT22;14714;48.106;11.546;2023-06-14T01:55:01;8.90;99.90
27200;DHT22;14714;48.106;11.546;2023-06-14T01:57:28;8.90;99.90
27200;DHT22;14714;48.106;11.546;2023-06-14T01:59:56;8.90;99.90
27200;DHT22;14714;48.106;11.546;2023-06-14T02:02:23;8.90;99.90
27200;DHT22;14714;48.106;11.546;2023-06-14T02:04:49;8.90;99.90
27200;DHT22;14714;48.106;11.546;2023-06-14T02:07:16;8.90;99.90
27200;DHT22;14714;48.106;11.546;2023-06-14T02:09:43;8.90;99.90
27200;DHT22;14714;48.106;11.546;2023-06-14T02:12:10;8.90;99.90
27200;DHT22;14714;48.106;11.546;2023-06-14T02:14:38;8.90;99.90
27200;DHT22;14714;48.106;11.546;2023-06-14T02:17:05;8.90;99.90
27200;DHT22;14714;48.106;11.546;2023-06-14T02:19:33;8.80;99.90
27200;DHT22;14714;48.106;11.546;2023-06-14T02:22:00;8.80;99.90
27200;DHT22;14714;48.106;11.546;2023-06-14T02:24:27;8.80;99.90
27200;DHT22;14714;48.106;11.546;2023-06-14T02:26:53;8.70;99.90
27200;DHT22;14714;48.106;11.546;2023-06-14T02:29:21;8.70;99.90
27200;DHT22;14714;48.106;11.546;2023-06-14T02:31:47;8.70;99.90
27200;DHT22;14714;48.106;11.546;2023-06-14T02:34:15;8.60;99.90
27200;DHT22;14714;48.106;11.546;2023-06-14T02:36:44;8.60;99.90
27200;DHT22;14714;48.106;11.546;2023-06-14T02:39:11;8.60;99.90
27200;DHT22;14714;48.106;11.546;2023-06-14T02:41:38;8.60;99.90
27200;DHT22;14714;48.106;11.546;2023-06-14T02:44:06;8.60;99.90
27200;DHT22;14714;48.106;11.546;2023-06-14T02:46:33;8.50;99.90
27200;DHT22;14714;48.106;11.546;2023-06-14T02:49:00;8.50;99.90
27200;DHT22;14714;48.106;11.546;2023-06-14T02:51:27;8.50;99.90
27200;DHT22;14714;48.106;11.546;2023-06-14T02:53:54;8.40;99.90
27200;DHT22;14714;48.106;11.546;2023-06-14T02:56:20;8.40;99.90
27200;DHT22;14714;48.106;11.546;2023-06-14T02:58:49;8.40;99.90
27200;DHT22;14714;48.106;11.546;2023-06-14T03:01:16;8.40;99.90
27200;DHT22;14714;48.106;11.546;2023-06-14T03:03:43;8.30;99.90
27200;DHT22;14714;48.106;11.546;2023-06-14T03:06:10;8.30;99.90
27200;DHT22;14714;48.106;11.546;2023-06-14T03:08:40;8.30;99.90
27200;DHT22;14714;48.106;11.546;2023-06-14T03:11:08;8.30;99.90
27200;DHT22;14714;48.106;11.546;2023-06-14T03:13:37;8.30;99.90
27200;DHT22;14714;48.106;11.546;2023-06-14T03:16:05;8.30;99.90
27200;DHT22;14714;48.106;11.546;2023-06-14T03:18:33;8.30;99.90
27200;DHT22;14714;48.106;11.546;2023-06-14T03:21:02;8.30;99.90
27200;DHT22;14714;48.106;11.546;2023-06-14T03:23:30;8.20;99.90
27200;DHT22;14714;48.106;11.546;2023-06-14T03:25:57;8.20;99.90
27200;DHT22;14714;48.106;11.546;2023-06-14T03:28:24;8.20;99.90
27200;DHT22;14714;48.106;11.546;2023-06-14T03:30:52;8.20;99.90
27200;DHT22;14714;48.106;11.546;2023-06-14T03:33:19;8.20;99.90
27200;DHT22;14714;48.106;11.546;2023-06-14T03:35:47;8.20;99.90
27200;DHT22;14714;48.106;11.546;2023-06-14T03:38:14;8.30;99.90
27200;DHT22;14714;48.106;11.546;2023-06-14T03:40:41;8.30;99.90
27200;DHT22;14714;48.106;11.546;2023-06-14T03:43:08;8.30;99.90
27200;DHT22;14714;48.106;11.546;2023-06-14T03:45:35;8.30;99.90
27200;DHT22;14714;48.106;11.546;2023-06-14T03:48:02;8.40;99.90
27200;DHT22;14714;48.106;11.546;2023-06-14T03:50:29;8.40;99.90
27200;DHT22;14714;48.106;11.546;2023-06-14T03:52:56;8.50;99.90
27200;DHT22;14714;48.106;11.546;2023-06-14T03:55:23;8.50;99.90
27200;DHT22;14714;48.106;11.546;2023-06-14T03:58:11;8.60;99.90
27200;DHT22;14714;48.106;11.546;2023-06-14T04:00:39;9.00;99.90
27200;DHT22;14714;48.106;11.546;2023-06-14T04:03:06;9.60;99.90
27200;DHT22;14714;48.106;11.546;2023-06-14T04:05:33;10.40;99.90
27200;DHT22;14714;48.106;11.546;2023-06-14T04:08:00;11.30;99.90
27200;DHT22;14714;48.106;11.546;2023-06-14T04:10:27;12.20;99.90
27200;DHT22;14714;48.106;11.546;2023-06-14T04:12:54;13.10;99.90
27200;DHT22;14714;48.106;11.546;2023-06-14T04:15:21;14.10;99.90
27200;DHT22;14714;48.106;11.546;2023-06-14T04:17:48;15.10;99.90
27200;DHT22;14714;48.106;11.546;2023-06-14T04:20:15;16.00;99.90
27200;DHT22;14714;48.106;11.546;2023-06-14T04:22:43;16.90;99.90
27200;DHT22;14714;48.106;11.546;2023-06-14T04:25:10;17.80;99.90
27200;DHT22;14714;48.106;11.546;2023-06-14T04:27:38;18.70;99.60
27200;DHT22;14714;48.106;11.546;2023-06-14T04:30:05;19.50;94.50
27200;DHT22;14714;48.106;11.546;2023-06-14T04:32:33;20.20;90.50
27200;DHT22;14714;48.106;11.546;2023-06-14T04:35:07;21.00;83.40
27200;DHT22;14714;48.106;11.546;2023-06-14T04:37:35;21.70;77.10
27200;DHT22;14714;48.106;11.546;2023-06-14T04:40:07;22.40;71.30
27200;DHT22;14714;48.106;11.546;2023-06-14T04:42:37;23.00;67.30
27200;DHT22;14714;48.106;11.546;2023-06-14T04:45:05;23.60;63.40
27200;DHT22;14714;48.106;11.546;2023-06-14T04:47:33;24.20;59.20
27200;DHT22;14714;48.106;11.546;2023-06-14T04:50:00;24.80;56.90
27200;DHT22;14714;48.106;11.546;2023-06-14T04:52:28;25.40;54.90
27200;DHT22;14714;48.106;11.546;2023-06-14T04:54:56;26.00;52.60
27200;DHT22;14714;48.106;11.546;2023-06-14T04:57:24;26.50;50.00
27200;DHT22;14714;48.106;11.546;2023-06-14T04:59:52;27.00;48.20
27200;DHT22;14714;48.106;11.546;2023-06-14T05:02:22;27.40;46.20
27200;DHT22;14714;48.106;11.546;2023-06-14T05:04:50;27.90;44.40
27200;DHT22;14714;48.106;11.546;2023-06-14T05:07:17;28.30;43.50
27200;DHT22;14714;48.106;11.546;2023-06-14T05:09:45;28.80;42.70
27200;DHT22;14714;48.106;11.546;2023-06-14T05:12:12;29.40;41.20
27200;DHT22;14714;48.106;11.546;2023-06-14T05:14:39;29.80;39.30
27200;DHT22;14714;48.106;11.546;2023-06-14T05:17:06;30.30;37.80
27200;DHT22;14714;48.106;11.546;2023-06-14T05:19:33;30.60;37.40
27200;DHT22;14714;48.106;11.546;2023-06-14T05:22:00;31.00;36.50
27200;DHT22;14714;48.106;11.546;2023-06-14T05:24:27;31.30;35.90
27200;DHT22;14714;48.106;11.546;2023-06-14T05:26:56;31.80;35.10
27200;DHT22;14714;48.106;11.546;2023-06-14T05:29:23;32.10;33.90
27200;DHT22;14714;48.106;11.546;2023-06-14T05:31:50;32.50;33.20
27200;DHT22;14714;48.106;11.546;2023-06-14T05:34:17;32.90;32.00
27200;DHT22;14714;48.106;11.546;2023-06-14T05:36:43;33.10;32.10
27200;DHT22;14714;48.106;11.546;2023-06-14T05:39:10;33.40;31.70
27200;DHT22;14714;48.106;11.546;2023-06-14T05:41:37;33.50;30.80
27200;DHT22;14714;48.106;11.546;2023-06-14T05:44:04;33.50;30.20
27200;DHT22;14714;48.106;11.546;2023-06-14T05:46:31;33.60;30.30
27200;DHT22;14714;48.106;11.546;2023-06-14T05:48:57;33.70;29.60
27200;DHT22;14714;48.106;11.546;2023-06-14T05:51:24;33.70;29.80
27200;DHT22;14714;48.106;11.546;2023-06-14T05:53:52;34.00;29.20
27200;DHT22;14714;48.106;11.546;2023-06-14T05:56:19;34.20;28.80
27200;DHT22;14714;48.106;11.546;2023-06-14T05:58:46;34.60;28.30
27200;DHT22;14714;48.106;11.546;2023-06-14T06:01:14;34.80;28.20
27200;DHT22;14714;48.106;11.546;2023-06-14T06:03:41;34.90;28.00
27200;DHT22;14714;48.106;11.546;2023-06-14T06:06:08;35.20;27.90
27200;DHT22;14714;48.106;11.546;2023-06-14T06:08:35;35.50;27.80
27200;DHT22;14714;48.106;11.546;2023-06-14T06:11:02;35.70;27.20
27200;DHT22;14714;48.106;11.546;2023-06-14T06:13:29;35.90;26.90
27200;DHT22;14714;48.106;11.546;2023-06-14T06:15:56;36.20;26.70
27200;DHT22;14714;48.106;11.546;2023-06-14T06:18:23;36.50;26.00
27200;DHT22;14714;48.106;11.546;2023-06-14T06:20:50;36.80;25.90
27200;DHT22;14714;48.106;11.546;2023-06-14T06:23:17;37.10;26.20
27200;DHT22;14714;48.106;11.546;2023-06-14T06:25:43;37.50;26.00
27200;DHT22;14714;48.106;11.546;2023-06-14T06:28:10;37.90;26.20
27200;DHT22;14714;48.106;11.546;2023-06-14T06:30:38;38.10;25.20
27200;DHT22;14714;48.106;11.546;2023-06-14T06:33:05;38.40;25.10
27200;DHT22;14714;48.106;11.546;2023-06-14T06:35:32;38.90;24.90
27200;DHT22;14714;48.106;11.546;2023-06-14T06:38:00;39.40;24.00
27200;DHT22;14714;48.106;11.546;2023-06-14T06:40:27;39.60;23.50
27200;DHT22;14714;48.106;11.546;2023-06-14T06:42:55;39.80;23.40
27200;DHT22;14714;48.106;11.546;2023-06-14T06:45:21;39.80;23.00
27200;DHT22;14714;48.106;11.546;2023-06-14T06:47:51;39.60;23.30
27200;DHT22;14714;48.106;11.546;2023-06-14T06:50:18;39.60;23.10
27200;DHT22;14714;48.106;11.546;2023-06-14T06:52:46;39.50;23.40
27200;DHT22;14714;48.106;11.546;2023-06-14T06:55:13;39.50;22.80
27200;DHT22;14714;48.106;11.546;2023-06-14T06:57:41;38.90;23.40
27200;DHT22;14714;48.106;11.546;2023-06-14T07:00:08;38.70;23.40
27200;DHT22;14714;48.106;11.546;2023-06-14T07:02:36;38.80;23.60
27200;DHT22;14714;48.106;11.546;2023-06-14T07:05:03;39.20;24.10
27200;DHT22;14714;48.106;11.546;2023-06-14T07:07:31;39.90;23.40
27200;DHT22;14714;48.106;11.546;2023-06-14T07:09:58;40.40;22.50
27200;DHT22;14714;48.106;11.546;2023-06-14T07:12:27;40.60;22.00
27200;DHT22;14714;48.106;11.546;2023-06-14T07:14:53;40.70;22.10
27200;DHT22;14714;48.106;11.546;2023-06-14T07:17:20;40.80;21.70
27200;DHT22;14714;48.106;11.546;2023-06-14T07:19:47;40.50;22.10
27200;DHT22;14714;48.106;11.546;2023-06-14T07:22:14;40.60;22.70
27200;DHT22;14714;48.106;11.546;2023-06-14T07:24:41;40.90;21.80
27200;DHT22;14714;48.106;11.546;2023-06-14T07:27:09;40.90;21.60
27200;DHT22;14714;48.106;11.546;2023-06-14T07:29:40;40.90;22.50
27200;DHT22;14714;48.106;11.546;2023-06-14T07:32:07;41.10;22.10
27200;DHT22;14714;48.106;11.546;2023-06-14T07:34:34;40.50;22.30
27200;DHT22;14714;48.106;11.546;2023-06-14T07:37:01;40.30;22.40
27200;DHT22;14714;48.106;11.546;2023-06-14T07:39:28;40.10;22.60
27200;DHT22;14714;48.106;11.546;2023-06-14T07:41:55;39.90;22.30
27200;DHT22;14714;48.106;11.546;2023-06-14T07:44:22;39.90;22.70
27200;DHT22;14714;48.106;11.546;2023-06-14T07:46:49;39.80;23.10
27200;DHT22;14714;48.106;11.546;2023-06-14T07:49:16;40.30;23.00
27200;DHT22;14714;48.106;11.546;2023-06-14T07:51:43;40.60;21.90
27200;DHT22;14714;48.106;11.546;2023-06-14T07:54:11;40.00;22.20
27200;DHT22;14714;48.106;11.546;2023-06-14T07:56:38;39.40;22.80
27200;DHT22;14714;48.106;11.546;2023-06-14T07:59:06;39.50;22.50
27200;DHT22;14714;48.106;11.546;2023-06-14T08:01:34;39.70;22.00
27200;DHT22;14714;48.106;11.546;2023-06-14T08:04:02;39.20;22.10
27200;DHT22;14714;48.106;11.546;2023-06-14T08:06:29;39.10;22.20
27200;DHT22;14714;48.106;11.546;2023-06-14T08:08:57;39.40;22.20
27200;DHT22;14714;48.106;11.546;2023-06-14T08:11:24;39.60;22.10
27200;DHT22;14714;48.106;11.546;2023-06-14T08:13:50;39.80;21.50
27200;DHT22;14714;48.106;11.546;2023-06-14T08:16:17;39.60;21.10
27200;DHT22;14714;48.106;11.546;2023-06-14T08:18:44;39.00;21.90
27200;DHT22;14714;48.106;11.546;2023-06-14T08:21:11;38.80;21.50
27200;DHT22;14714;48.106;11.546;2023-06-14T08:23:40;38.40;21.90
27200;DHT22;14714;48.106;11.546;2023-06-14T08:26:07;38.90;22.20
27200;DHT22;14714;48.106;11.546;2023-06-14T08:28:34;39.10;21.80
27200;DHT22;14714;48.106;11.546;2023-06-14T08:31:01;39.40;21.50
27200;DHT22;14714;48.106;11.546;2023-06-14T08:33:28;39.60;20.70
27200;DHT22;14714;48.106;11.546;2023-06-14T08:35:55;39.30;21.20
27200;DHT22;14714;48.106;11.546;2023-06-14T08:38:22;38.30;21.30
27200;DHT22;14714;48.106;11.546;2023-06-14T08:40:51;38.10;21.10
27200;DHT22;14714;48.106;11.546;2023-06-14T08:43:19;37.20;21.80
27200;DHT22;14714;48.106;11.546;2023-06-14T08:45:47;36.50;22.40
27200;DHT22;14714;48.106;11.546;2023-06-14T08:48:15;35.80;22.40
27200;DHT22;14714;48.106;11.546;2023-06-14T08:50:45;35.10;23.10
27200;DHT22;14714;48.106;11.546;2023-06-14T08:53:14;35.20;23.10
27200;DHT22;14714;48.106;11.546;2023-06-14T08:55:47;35.80;22.90
27200;DHT22;14714;48.106;11.546;2023-06-14T08:58:14;36.40;22.50
27200;DHT22;14714;48.106;11.546;2023-06-14T09:00:42;37.00;22.00
27200;DHT22;14714;48.106;11.546;2023-06-14T09:03:10;37.60;21.70
27200;DHT22;14714;48.106;11.546;2023-06-14T09:05:40;37.80;21.30
27200;DHT22;14714;48.106;11.546;2023-06-14T09:08:07;38.10;21.40
27200;DHT22;14714;48.106;11.546;2023-06-14T09:10:34;38.10;21.00
27200;DHT22;14714;48.106;11.546;2023-06-14T09:13:04;38.10;21.40
27200;DHT22;14714;48.106;11.546;2023-06-14T09:15:31;37.50;21.30
27200;DHT22;14714;48.106;11.546;2023-06-14T09:18:01;36.80;22.10
27200;DHT22;14714;48.106;11.546;2023-06-14T09:20:30;36.30;22.10
27200;DHT22;14714;48.106;11.546;2023-06-14T09:22:57;36.60;21.70
27200;DHT22;14714;48.106;11.546;2023-06-14T09:25:24;36.70;22.20
27200;DHT22;14714;48.106;11.546;2023-06-14T09:28:07;36.90;22.30
27200;DHT22;14714;48.106;11.546;2023-06-14T09:30:37;36.70;21.80
27200;DHT22;14714;48.106;11.546;2023-06-14T09:33:04;36.00;22.50
27200;DHT22;14714;48.106;11.546;2023-06-14T09:35:32;35.10;23.10
27200;DHT22;14714;48.106;11.546;2023-06-14T09:37:59;34.70;23.00
27200;DHT22;14714;48.106;11.546;2023-06-14T09:40:26;34.60;23.50
27200;DHT22;14714;48.106;11.546;2023-06-14T09:42:54;34.80;23.80
27200;DHT22;14714;48.106;11.546;2023-06-14T09:45:25;35.10;23.80
27200;DHT22;14714;48.106;11.546;2023-06-14T09:47:56;35.30;24.60
27200;DHT22;14714;48.106;11.546;2023-06-14T09:50:33;34.30;24.60
27200;DHT22;14714;48.106;11.546;2023-06-14T09:53:07;32.50;26.20
27200;DHT22;14714;48.106;11.546;2023-06-14T09:55:37;31.00;27.90
27200;DHT22;14714;48.106;11.546;2023-06-14T09:58:06;30.10;29.00
27200;DHT22;14714;48.106;11.546;2023-06-14T10:00:35;29.60;28.90
27200;DHT22;14714;48.106;11.546;2023-06-14T10:03:14;28.80;30.20
27200;DHT22;14714;48.106;11.546;2023-06-14T10:05:44;28.60;30.40
27200;DHT22;14714;48.106;11.546;2023-06-14T10:08:15;29.10;30.00
27200;DHT22;14714;48.106;11.546;2023-06-14T10:10:43;29.60;29.20
27200;DHT22;14714;48.106;11.546;2023-06-14T10:13:11;30.10;28.80
27200;DHT22;14714;48.106;11.546;2023-06-14T10:18:36;30.60;28.00
27200;DHT22;14714;48.106;11.546;2023-06-14T10:23:45;30.60;27.60
27200;DHT22;14714;48.106;11.546;2023-06-14T10:26:20;30.20;27.80
27200;DHT22;14714;48.106;11.546;2023-06-14T10:29:09;29.70;28.60
27200;DHT22;14714;48.106;11.546;2023-06-14T10:31:50;29.70;29.10
27200;DHT22;14714;48.106;11.546;2023-06-14T10:39:31;30.90;27.70
27200;DHT22;14714;48.106;11.546;2023-06-14T10:42:01;31.30;27.60
27200;DHT22;14714;48.106;11.546;2023-06-14T10:44:45;31.40;27.40
27200;DHT22;14714;48.106;11.546;2023-06-14T10:52:28;30.80;27.70
27200;DHT22;14714;48.106;11.546;2023-06-14T10:57:22;30.30;28.20
27200;DHT22;14714;48.106;11.546;2023-06-14T10:59:50;30.10;28.80
27200;DHT22;14714;48.106;11.546;2023-06-14T11:05:08;29.20;30.80
27200;DHT22;14714;48.106;11.546;2023-06-14T11:10:35;27.80;34.30
27200;DHT22;14714;48.106;11.546;2023-06-14T11:13:07;27.70;34.50
27200;DHT22;14714;48.106;11.546;2023-06-14T11:15:35;27.70;34.60
27200;DHT22;14714;48.106;11.546;2023-06-14T11:18:04;27.70;34.40
27200;DHT22;14714;48.106;11.546;2023-06-14T11:20:33;27.70;34.00
27200;DHT22;14714;48.106;11.546;2023-06-14T11:23:00;27.80;33.90
27200;DHT22;14714;48.106;11.546;2023-06-14T11:25:28;27.80;33.00
27200;DHT22;14714;48.106;11.546;2023-06-14T11:27:55;27.70;33.20
27200;DHT22;14714;48.106;11.546;2023-06-14T11:30:22;27.60;32.90
27200;DHT22;14714;48.106;11.546;2023-06-14T11:32:51;27.40;33.20
27200;DHT22;14714;48.106;11.546;2023-06-14T11:35:25;27.50;34.70
27200;DHT22;14714;48.106;11.546;2023-06-14T11:37:55;27.70;33.70
27200;DHT22;14714;48.106;11.546;2023-06-14T11:40:25;27.80;33.00
27200;DHT22;14714;48.106;11.546;2023-06-14T11:43:01;27.70;33.00
27200;DHT22;14714;48.106;11.546;2023-06-14T11:45:29;27.50;32.50
27200;DHT22;14714;48.106;11.546;2023-06-14T11:47:58;26.80;33.50
27200;DHT22;14714;48.106;11.546;2023-06-14T11:50:26;26.20;34.60
27200;DHT22;14714;48.106;11.546;2023-06-14T11:52:55;25.80;35.90
27200;DHT22;14714;48.106;11.546;2023-06-14T11:55:23;25.70;34.90
27200;DHT22;14714;48.106;11.546;2023-06-14T11:57:50;25.50;35.30
27200;DHT22;14714;48.106;11.546;2023-06-14T12:00:18;25.10;35.50
27200;DHT22;14714;48.106;11.546;2023-06-14T12:02:53;24.90;36.80
27200;DHT22;14714;48.106;11.546;2023-06-14T12:05:24;24.80;36.20
27200;DHT22;14714;48.106;11.546;2023-06-14T12:08:00;25.00;37.00
27200;DHT22;14714;48.106;11.546;2023-06-14T12:10:29;25.10;35.20
27200;DHT22;14714;48.106;11.546;2023-06-14T12:12:57;25.20;35.70
27200;DHT22;14714;48.106;11.546;2023-06-14T12:15:28;25.10;35.90
27200;DHT22;14714;48.106;11.546;2023-06-14T12:17:57;25.00;35.80
27200;DHT22;14714;48.106;11.546;2023-06-14T12:20:29;25.00;35.80
27200;DHT22;14714;48.106;11.546;2023-06-14T12:22:58;25.10;36.20
27200;DHT22;14714;48.106;11.546;2023-06-14T12:25:34;25.20;35.90
27200;DHT22;14714;48.106;11.546;2023-06-14T12:28:09;25.20;35.60
27200;DHT22;14714;48.106;11.546;2023-06-14T12:30:37;25.10;35.80
27200;DHT22;14714;48.106;11.546;2023-06-14T12:33:04;25.00;36.30
27200;DHT22;14714;48.106;11.546;2023-06-14T12:35:32;25.00;37.00
27200;DHT22;14714;48.106;11.546;2023-06-14T12:37:59;24.90;36.90
27200;DHT22;14714;48.106;11.546;2023-06-14T12:40:27;25.00;36.80
27200;DHT22;14714;48.106;11.546;2023-06-14T12:42:53;25.20;36.30
27200;DHT22;14714;48.106;11.546;2023-06-14T12:45:20;25.30;35.50
27200;DHT22;14714;48.106;11.546;2023-06-14T12:47:47;25.50;35.50
27200;DHT22;14714;48.106;11.546;2023-06-14T12:50:14;25.70;35.90
27200;DHT22;14714;48.106;11.546;2023-06-14T12:52:42;25.70;36.10
27200;DHT22;14714;48.106;11.546;2023-06-14T12:55:08;25.70;34.80
27200;DHT22;14714;48.106;11.546;2023-06-14T12:57:36;25.40;35.40
27200;DHT22;14714;48.106;11.546;2023-06-14T13:00:05;25.40;35.40
27200;DHT22;14714;48.106;11.546;2023-06-14T13:02:34;25.50;35.70
27200;DHT22;14714;48.106;11.546;2023-06-14T13:05:01;25.60;35.70
27200;DHT22;14714;48.106;11.546;2023-06-14T13:07:30;25.60;34.70
27200;DHT22;14714;48.106;11.546;2023-06-14T13:09:57;25.60;35.70
27200;DHT22;14714;48.106;11.546;2023-06-14T13:12:24;25.60;35.90
27200;DHT22;14714;48.106;11.546;2023-06-14T13:14:50;25.50;35.20
27200;DHT22;14714;48.106;11.546;2023-06-14T13:17:17;25.40;36.20
27200;DHT22;14714;48.106;11.546;2023-06-14T13:19:44;25.30;36.70
27200;DHT22;14714;48.106;11.546;2023-06-14T13:22:11;25.40;36.90
27200;DHT22;14714;48.106;11.546;2023-06-14T13:24:38;25.40;36.50
27200;DHT22;14714;48.106;11.546;2023-06-14T13:27:05;25.30;35.70
27200;DHT22;14714;48.106;11.546;2023-06-14T13:29:33;25.10;35.50
27200;DHT22;14714;48.106;11.546;2023-06-14T13:32:03;24.90;36.50
27200;DHT22;14714;48.106;11.546;2023-06-14T13:34:30;24.80;36.90
27200;DHT22;14714;48.106;11.546;2023-06-14T13:36:57;24.70;35.70
27200;DHT22;14714;48.106;11.546;2023-06-14T13:39:26;24.70;35.40
27200;DHT22;14714;48.106;11.546;2023-06-14T13:41:53;24.60;36.30
27200;DHT22;14714;48.106;11.546;2023-06-14T13:44:20;24.60;35.50
27200;DHT22;14714;48.106;11.546;2023-06-14T13:46:48;24.50;36.20
27200;DHT22;14714;48.106;11.546;2023-06-14T13:49:14;24.50;36.70
27200;DHT22;14714;48.106;11.546;2023-06-14T13:51:41;24.40;36.10
27200;DHT22;14714;48.106;11.546;2023-06-14T13:54:08;24.40;35.80
27200;DHT22;14714;48.106;11.546;2023-06-14T13:56:35;24.30;37.00
27200;DHT22;14714;48.106;11.546;2023-06-14T13:59:02;24.30;36.50
27200;DHT22;14714;48.106;11.546;2023-06-14T14:01:29;24.20;36.00
27200;DHT22;14714;48.106;11.546;2023-06-14T14:03:57;24.10;35.80
27200;DHT22;14714;48.106;11.546;2023-06-14T14:06:25;23.90;36.40
27200;DHT22;14714;48.106;11.546;2023-06-14T14:08:52;23.70;37.00
27200;DHT22;14714;48.106;11.546;2023-06-14T14:11:19;23.70;37.50
27200;DHT22;14714;48.106;11.546;2023-06-14T14:13:47;23.70;37.00
27200;DHT22;14714;48.106;11.546;2023-06-14T14:16:15;23.70;36.50
27200;DHT22;14714;48.106;11.546;2023-06-14T14:18:42;23.70;36.20
27200;DHT22;14714;48.106;11.546;2023-06-14T14:21:09;23.70;35.50
27200;DHT22;14714;48.106;11.546;2023-06-14T14:23:36;23.70;36.60
27200;DHT22;14714;48.106;11.546;2023-06-14T14:26:06;23.80;36.70
27200;DHT22;14714;48.106;11.546;2023-06-14T14:28:33;23.90;36.50
27200;DHT22;14714;48.106;11.546;2023-06-14T14:31:00;24.00;36.30
27200;DHT22;14714;48.106;11.546;2023-06-14T14:33:27;24.00;36.60
27200;DHT22;14714;48.106;11.546;2023-06-14T14:35:54;24.00;36.70
27200;DHT22;14714;48.106;11.546;2023-06-14T14:38:21;23.90;36.70
27200;DHT22;14714;48.106;11.546;2023-06-14T14:40:48;23.80;36.00
27200;DHT22;14714;48.106;11.546;2023-06-14T14:43:15;23.70;37.00
27200;DHT22;14714;48.106;11.546;2023-06-14T14:45:42;23.60;37.00
27200;DHT22;14714;48.106;11.546;2023-06-14T14:48:09;23.60;37.60
27200;DHT22;14714;48.106;11.546;2023-06-14T14:50:36;23.60;37.90
27200;DHT22;14714;48.106;11.546;2023-06-14T14:53:03;23.60;37.70
27200;DHT22;14714;48.106;11.546;2023-06-14T14:55:30;23.50;37.80
27200;DHT22;14714;48.106;11.546;2023-06-14T14:57:57;23.50;36.90
27200;DHT22;14714;48.106;11.546;2023-06-14T15:00:24;23.50;37.40
27200;DHT22;14714;48.106;11.546;2023-06-14T15:02:51;23.50;37.40
27200;DHT22;14714;48.106;11.546;2023-06-14T15:05:18;23.50;36.80
27200;DHT22;14714;48.106;11.546;2023-06-14T15:07:44;23.50;37.70
27200;DHT22;14714;48.106;11.546;2023-06-14T15:10:12;23.50;38.40
27200;DHT22;14714;48.106;11.546;2023-06-14T15:12:39;23.60;38.60
27200;DHT22;14714;48.106;11.546;2023-06-14T15:15:06;23.60;38.20
27200;DHT22;14714;48.106;11.546;2023-06-14T15:17:34;23.50;38.90
27200;DHT22;14714;48.106;11.546;2023-06-14T15:20:01;23.50;38.80
27200;DHT22;14714;48.106;11.546;2023-06-14T15:22:27;23.50;38.60
27200;DHT22;14714;48.106;11.546;2023-06-14T15:24:54;23.40;38.70
27200;DHT22;14714;48.106;11.546;2023-06-14T15:27:21;23.30;38.90
27200;DHT22;14714;48.106;11.546;2023-06-14T15:29:49;23.30;39.00
27200;DHT22;14714;48.106;11.546;2023-06-14T15:32:17;23.20;39.30
27200;DHT22;14714;48.106;11.546;2023-06-14T15:34:44;23.10;39.10
27200;DHT22;14714;48.106;11.546;2023-06-14T15:37:11;23.10;39.00
27200;DHT22;14714;48.106;11.546;2023-06-14T15:39:38;23.10;39.30
27200;DHT22;14714;48.106;11.546;2023-06-14T15:42:05;23.10;39.00
27200;DHT22;14714;48.106;11.546;2023-06-14T15:44:34;23.10;39.10
27200;DHT22;14714;48.106;11.546;2023-06-14T15:47:02;23.10;39.30
27200;DHT22;14714;48.106;11.546;2023-06-14T15:49:29;23.10;39.50